createdAt,value
2019-02-24T00:00:46.692Z,36.42
2019-02-24T00:03:21.440Z,36.87
2019-02-24T00:05:53.303Z,36.67
2019-02-24T00:08:27.671Z,37.55
2019-02-24T00:11:01.618Z,36.37
2019-02-24T00:13:33.446Z,36.58
2019-02-24T00:16:08.437Z,37.47
2019-02-24T00:18:45.270Z,37.53
2019-02-24T00:21:19.917Z,37.29
2019-02-24T00:23:51.757Z,37.00
2019-02-24T00:26:23.626Z,36.75
2019-02-24T00:28:55.470Z,36.19
2019-02-24T00:31:27.324Z,36.21
2019-02-24T00:34:01.612Z,35.70
2019-02-24T00:36:40.307Z,35.65
2019-02-24T00:39:13.317Z,36.27
2019-02-24T00:41:52.327Z,37.36
2019-02-24T00:44:33.909Z,36.86
2019-02-24T00:47:10.839Z,36.14
2019-02-24T00:49:42.678Z,37.10
2019-02-24T00:52:17.580Z,36.40
2019-02-24T00:54:52.811Z,36.41
2019-02-24T00:57:25.734Z,36.24
2019-02-24T00:59:59.077Z,35.71
2019-02-24T01:02:34.056Z,36.70
2019-02-24T01:05:11.309Z,38.08
2019-02-24T01:07:43.145Z,39.13
2019-02-24T01:10:15.005Z,40.29
2019-02-24T01:12:48.153Z,40.94
2019-02-24T01:15:21.619Z,40.80
2019-02-24T01:18:00.996Z,40.90
2019-02-24T01:20:36.013Z,41.74
2019-02-24T01:23:07.834Z,41.85
2019-02-24T01:25:39.660Z,41.92
2019-02-24T01:28:11.521Z,41.76
2019-02-24T01:30:45.984Z,41.29
2019-02-24T01:33:24.243Z,40.63
2019-02-24T01:35:58.228Z,40.55
2019-02-24T01:38:30.087Z,42.02
2019-02-24T01:41:03.494Z,41.58
2019-02-24T01:43:35.314Z,41.22
2019-02-24T01:46:07.148Z,40.75
2019-02-24T01:48:40.680Z,41.47
2019-02-24T01:51:15.436Z,41.35
2019-02-24T01:53:48.347Z,41.40
2019-02-24T01:56:22.938Z,41.32
2019-02-24T01:58:56.427Z,40.33
2019-02-24T02:01:30.759Z,39.81
2019-02-24T02:04:05.673Z,36.96
2019-02-24T02:06:37.531Z,36.79
2019-02-24T02:09:11.659Z,36.20
2019-02-24T02:11:46.424Z,35.93
2019-02-24T02:14:23.031Z,35.77
2019-02-24T02:16:54.871Z,36.07
2019-02-24T02:19:26.712Z,35.34
2019-02-24T02:21:59.876Z,35.49
2019-02-24T02:24:35.632Z,35.13
2019-02-24T02:27:08.581Z,34.93
2019-02-24T02:29:40.411Z,34.81
2019-02-24T02:32:16.177Z,34.20
2019-02-24T02:34:48.187Z,35.22
2019-02-24T02:37:22.581Z,34.73
2019-02-24T02:39:54.431Z,34.28
2019-02-24T02:42:26.281Z,34.09
2019-02-24T02:44:58.137Z,34.36
2019-02-24T02:47:33.247Z,33.71
2019-02-24T02:50:05.254Z,33.60
2019-02-24T02:52:40.915Z,33.81
2019-02-24T02:55:12.725Z,33.85
2019-02-24T02:57:44.555Z,33.66
2019-02-24T03:00:33.946Z,33.97
2019-02-24T03:03:06.016Z,33.55
2019-02-24T03:05:49.902Z,34.09
2019-02-24T03:08:42.168Z,34.55
2019-02-24T03:11:17.777Z,34.76
2019-02-24T03:13:53.472Z,35.83
2019-02-24T03:16:32.092Z,36.55
2019-02-24T03:19:06.802Z,34.77
2019-02-24T03:21:38.609Z,35.65
2019-02-24T03:24:15.943Z,35.69
2019-02-24T03:26:49.264Z,34.94
2019-02-24T03:29:21.080Z,35.11
2019-02-24T03:31:55.637Z,35.27
2019-02-24T03:34:30.389Z,34.48
2019-02-24T03:37:04.013Z,35.08
2019-02-24T03:39:35.835Z,34.91
2019-02-24T03:42:13.945Z,33.84
2019-02-24T03:44:45.780Z,34.21
2019-02-24T03:47:17.666Z,34.45
2019-02-24T03:49:49.540Z,34.41
2019-02-24T03:52:21.404Z,34.75
2019-02-24T03:54:53.235Z,34.81
2019-02-24T03:57:29.425Z,35.18
2019-02-24T04:00:03.794Z,34.79
2019-02-24T04:02:36.813Z,34.79
2019-02-24T04:05:08.674Z,34.42
2019-02-24T04:07:40.477Z,35.34
2019-02-24T04:10:12.306Z,34.91
2019-02-24T04:12:44.152Z,35.01
2019-02-24T04:15:16.071Z,35.50
2019-02-24T04:17:47.899Z,35.30
2019-02-24T04:20:19.745Z,35.65
2019-02-24T04:22:51.597Z,34.86
2019-02-24T04:25:23.418Z,35.46
2019-02-24T04:27:55.280Z,36.84
2019-02-24T04:30:27.130Z,37.26
2019-02-24T04:32:58.925Z,37.44
2019-02-24T04:35:30.742Z,37.27
2019-02-24T04:38:02.583Z,37.31
2019-02-24T04:40:34.394Z,37.92
2019-02-24T04:43:06.273Z,37.98
2019-02-24T04:45:38.100Z,37.68
2019-02-24T04:48:09.943Z,37.75
2019-02-24T04:50:41.855Z,39.01
2019-02-24T04:53:13.693Z,38.41
2019-02-24T04:55:45.550Z,39.47
2019-02-24T04:58:19.444Z,38.90
2019-02-24T05:00:51.269Z,38.67
2019-02-24T05:03:23.112Z,38.67
2019-02-24T05:05:54.936Z,38.28
2019-02-24T05:08:26.773Z,38.25
2019-02-24T05:10:58.596Z,38.28
2019-02-24T05:13:30.425Z,38.38
2019-02-24T05:16:02.258Z,38.59
2019-02-24T05:18:34.100Z,38.46
2019-02-24T05:21:05.942Z,38.83
2019-02-24T05:23:37.748Z,38.81
2019-02-24T05:26:09.573Z,37.94
2019-02-24T05:28:41.426Z,38.91
2019-02-24T05:31:13.262Z,38.16
2019-02-24T05:33:45.116Z,37.80
2019-02-24T05:36:16.937Z,37.42
2019-02-24T05:38:48.740Z,37.53
2019-02-24T05:41:22.050Z,37.71
2019-02-24T05:43:53.865Z,37.87
2019-02-24T05:46:25.691Z,37.98
2019-02-24T05:48:57.518Z,38.25
2019-02-24T05:51:30.451Z,38.31
2019-02-24T05:54:02.250Z,38.42
2019-02-24T05:56:34.091Z,38.49
2019-02-24T05:59:05.919Z,38.61
2019-02-24T06:01:37.793Z,38.85
2019-02-24T06:04:09.625Z,39.33
2019-02-24T06:06:41.468Z,39.23
2019-02-24T06:09:13.296Z,39.17
2019-02-24T06:11:45.166Z,39.03
2019-02-24T06:14:17.001Z,38.87
2019-02-24T06:16:48.822Z,39.19
2019-02-24T06:19:20.663Z,39.17
2019-02-24T06:21:54.086Z,39.18
2019-02-24T06:24:25.916Z,39.51
2019-02-24T06:26:57.715Z,39.76
2019-02-24T06:29:29.653Z,39.74
2019-02-24T06:32:01.467Z,40.11
2019-02-24T06:34:33.368Z,40.22
2019-02-24T06:37:05.169Z,40.86
2019-02-24T06:39:38.664Z,40.85
2019-02-24T06:42:10.567Z,40.15
2019-02-24T06:44:42.420Z,40.16
2019-02-24T06:47:14.239Z,39.72
2019-02-24T06:49:46.080Z,38.97
2019-02-24T06:52:24.458Z,39.03
2019-02-24T06:54:56.370Z,39.24
2019-02-24T06:57:28.190Z,38.38
2019-02-24T07:00:00.023Z,38.53
2019-02-24T07:02:31.858Z,37.96
2019-02-24T07:05:03.672Z,37.83
2019-02-24T07:07:35.545Z,37.62
2019-02-24T07:10:08.118Z,37.53
2019-02-24T07:12:39.965Z,37.44
2019-02-24T07:15:11.815Z,37.18
2019-02-24T07:17:43.674Z,36.81
2019-02-24T07:20:15.496Z,36.53
2019-02-24T07:22:47.338Z,36.46
2019-02-24T07:25:19.169Z,36.85
2019-02-24T07:27:51.039Z,36.78
2019-02-24T07:30:23.835Z,37.11
2019-02-24T07:32:55.801Z,37.31
2019-02-24T07:35:27.744Z,37.40
2019-02-24T07:37:59.565Z,37.39
2019-02-24T07:40:31.397Z,37.60
2019-02-24T07:43:03.258Z,37.38
2019-02-24T07:45:35.063Z,37.61
2019-02-24T07:48:07.005Z,36.87
2019-02-24T07:50:38.865Z,36.76
2019-02-24T07:53:10.693Z,36.13
2019-02-24T07:55:42.532Z,36.55
2019-02-24T07:58:14.375Z,36.74
2019-02-24T08:00:46.017Z,36.57
2019-02-24T08:03:17.858Z,35.94
2019-02-24T08:05:49.728Z,36.22
2019-02-24T08:08:21.568Z,35.99
2019-02-24T08:10:53.114Z,36.00
2019-02-24T08:13:25.065Z,35.71
2019-02-24T08:15:56.640Z,36.20
2019-02-24T08:18:28.480Z,36.22
2019-02-24T08:21:00.503Z,35.66
2019-02-24T08:23:32.041Z,35.45
2019-02-24T08:26:03.593Z,35.30
2019-02-24T08:28:35.212Z,34.68
2019-02-24T08:31:06.756Z,34.78
2019-02-24T08:33:38.452Z,34.79
2019-02-24T08:36:12.830Z,34.09
2019-02-24T08:38:44.464Z,33.73
2019-02-24T08:41:16.022Z,34.37
2019-02-24T08:43:49.206Z,34.00
2019-02-24T08:46:20.782Z,32.13
2019-02-24T08:48:52.398Z,32.96
2019-02-24T08:51:24.059Z,32.28
2019-02-24T08:53:55.788Z,31.93
2019-02-24T08:56:27.337Z,31.81
2019-02-24T08:58:58.936Z,32.73
2019-02-24T09:01:30.497Z,32.43
2019-02-24T09:04:03.871Z,31.52
2019-02-24T09:06:35.390Z,31.56
2019-02-24T09:09:07.254Z,31.51
2019-02-24T09:11:38.863Z,30.74
2019-02-24T09:14:10.480Z,31.60
2019-02-24T09:16:42.101Z,31.13
2019-02-24T09:19:15.868Z,30.41
2019-02-24T09:21:47.621Z,29.55
2019-02-24T09:24:19.205Z,30.22
2019-02-24T09:26:50.798Z,29.74
2019-02-24T09:29:23.589Z,28.71
2019-02-24T09:31:55.243Z,28.17
2019-02-24T09:34:26.853Z,28.30
2019-02-24T09:36:58.469Z,28.16
2019-02-24T09:39:31.163Z,27.14
2019-02-24T09:42:02.778Z,26.43
2019-02-24T09:44:37.117Z,26.28
2019-02-24T09:47:08.717Z,26.95
2019-02-24T09:49:40.272Z,28.15
2019-02-24T09:52:11.901Z,26.81
2019-02-24T09:54:43.486Z,28.73
2019-02-24T09:57:15.110Z,28.72
2019-02-24T09:59:46.676Z,28.63
2019-02-24T10:02:18.285Z,28.51
2019-02-24T10:04:49.866Z,28.45
2019-02-24T10:07:21.474Z,27.68
2019-02-24T10:09:53.045Z,26.92
2019-02-24T10:12:24.651Z,27.35
2019-02-24T10:14:56.284Z,29.56
2019-02-24T10:17:27.862Z,29.30
2019-02-24T10:19:59.541Z,28.39
2019-02-24T10:22:43.930Z,28.38
2019-02-24T10:25:15.631Z,29.11
2019-02-24T10:27:47.238Z,28.70
2019-02-24T10:30:18.904Z,27.71
2019-02-24T10:32:50.467Z,27.49
2019-02-24T10:35:22.100Z,29.38
2019-02-24T10:37:53.702Z,28.24
2019-02-24T10:40:26.406Z,27.12
2019-02-24T10:42:58.043Z,26.72
2019-02-24T10:45:49.788Z,26.83
2019-02-24T10:48:21.414Z,27.57
2019-02-24T10:50:54.527Z,27.28
2019-02-24T10:53:28.119Z,26.90
2019-02-24T10:55:59.513Z,26.69
2019-02-24T10:58:34.797Z,27.22
2019-02-24T11:01:04.525Z,28.17
2019-02-24T11:03:36.215Z,26.31
2019-02-24T11:06:07.805Z,28.30
2019-02-24T11:08:39.381Z,27.58
2019-02-24T11:11:10.994Z,27.66
2019-02-24T11:13:42.573Z,26.85
2019-02-24T11:16:18.463Z,28.14
2019-02-24T11:18:50.058Z,27.82
2019-02-24T11:21:21.605Z,28.27
2019-02-24T11:23:53.256Z,27.42
2019-02-24T11:26:24.887Z,25.87
2019-02-24T11:28:56.477Z,26.16
2019-02-24T11:31:28.094Z,26.17
2019-02-24T11:33:59.674Z,26.32
2019-02-24T11:36:31.458Z,26.48
2019-02-24T11:39:03.147Z,26.81
2019-02-24T11:41:36.354Z,26.17
2019-02-24T11:44:07.931Z,24.99
2019-02-24T11:46:40.630Z,25.66
2019-02-24T11:49:12.206Z,26.31
2019-02-24T11:51:43.793Z,25.24
2019-02-24T11:54:15.419Z,23.72
2019-02-24T11:56:47.010Z,24.94
2019-02-24T11:59:18.599Z,24.81
2019-02-24T12:01:50.165Z,24.97
2019-02-24T12:04:21.794Z,25.34
2019-02-24T12:06:53.381Z,25.69
2019-02-24T12:09:24.976Z,24.25
2019-02-24T12:11:56.580Z,24.27
2019-02-24T12:14:28.191Z,24.58
2019-02-24T12:16:59.793Z,24.11
2019-02-24T12:19:31.409Z,23.72
2019-02-24T12:22:02.999Z,23.60
2019-02-24T12:24:34.771Z,24.57
2019-02-24T12:27:07.437Z,23.93
2019-02-24T12:29:39.016Z,23.93
2019-02-24T12:32:11.719Z,24.20
2019-02-24T12:34:43.316Z,24.43
2019-02-24T12:37:14.943Z,24.26
2019-02-24T12:39:46.627Z,24.54
2019-02-24T12:42:18.233Z,24.51
2019-02-24T12:44:49.875Z,25.37
2019-02-24T12:47:22.550Z,24.51
2019-02-24T12:50:02.730Z,25.10
2019-02-24T12:52:27.522Z,24.84
2019-02-24T12:54:59.102Z,24.66
2019-02-24T12:57:31.822Z,24.44
2019-02-24T13:00:03.487Z,24.53
2019-02-24T13:02:36.027Z,24.40
2019-02-24T13:05:08.440Z,24.77
2019-02-24T13:07:40.005Z,24.57
2019-02-24T13:10:13.791Z,25.28
2019-02-24T13:12:45.417Z,24.93
2019-02-24T13:15:17.071Z,24.79
2019-02-24T13:17:49.701Z,25.34
2019-02-24T13:20:21.279Z,24.71
2019-02-24T13:22:52.909Z,25.23
2019-02-24T13:25:24.524Z,25.14
2019-02-24T13:27:56.082Z,24.63
2019-02-24T13:30:27.795Z,25.02
2019-02-24T13:32:59.403Z,25.43
2019-02-24T13:35:31.085Z,25.76
2019-02-24T13:38:02.728Z,24.94
2019-02-24T13:40:34.377Z,23.62
2019-02-24T13:43:05.954Z,24.78
2019-02-24T13:45:37.567Z,24.22
2019-02-24T13:48:09.158Z,24.15
2019-02-24T13:50:40.803Z,24.50
2019-02-24T13:53:12.395Z,24.73
2019-02-24T13:55:45.586Z,23.48
2019-02-24T13:58:17.171Z,24.68
2019-02-24T14:00:48.749Z,23.95
2019-02-24T14:03:20.395Z,23.95
2019-02-24T14:05:51.989Z,23.65
2019-02-24T14:08:23.592Z,24.23
2019-02-24T14:10:55.356Z,23.76
2019-02-24T14:13:26.945Z,23.56
2019-02-24T14:15:58.573Z,23.67
2019-02-24T14:18:30.157Z,23.69
2019-02-24T14:21:01.765Z,23.36
2019-02-24T14:23:33.332Z,23.66
2019-02-24T14:26:06.408Z,24.21
2019-02-24T14:28:39.724Z,23.58
2019-02-24T14:31:11.322Z,24.12
2019-02-24T14:33:42.918Z,23.89
2019-02-24T14:36:14.503Z,24.18
2019-02-24T14:38:46.062Z,24.23
2019-02-24T14:41:17.671Z,23.57
2019-02-24T14:43:49.254Z,23.64
2019-02-24T14:46:20.827Z,23.60
2019-02-24T14:48:52.421Z,24.18
2019-02-24T14:51:24.014Z,23.83
2019-02-24T14:53:58.220Z,23.69
2019-02-24T14:56:28.901Z,23.58
2019-02-24T14:59:00.463Z,23.71
2019-02-24T15:01:33.165Z,23.57
2019-02-24T15:04:04.781Z,23.08
2019-02-24T15:06:36.402Z,23.41
2019-02-24T15:09:08.876Z,22.68
2019-02-24T15:11:40.545Z,22.79
2019-02-24T15:14:12.114Z,22.59
2019-02-24T15:16:43.717Z,22.33
2019-02-24T15:19:16.871Z,22.96
2019-02-24T15:21:48.510Z,22.96
2019-02-24T15:24:20.095Z,22.46
2019-02-24T15:26:51.790Z,22.26
2019-02-24T15:29:23.381Z,22.18
2019-02-24T15:31:54.990Z,22.59
2019-02-24T15:34:26.684Z,21.89
2019-02-24T15:36:58.274Z,22.02
2019-02-24T15:39:29.846Z,21.65
2019-02-24T15:42:01.422Z,21.97
2019-02-24T15:44:35.899Z,21.99
2019-02-24T15:47:07.500Z,22.39
2019-02-24T15:49:42.160Z,22.28
2019-02-24T15:52:13.766Z,22.10
2019-02-24T15:54:58.221Z,21.93
2019-02-24T15:57:29.926Z,22.03
2019-02-24T16:00:01.537Z,22.31
2019-02-24T16:02:34.743Z,22.42
2019-02-24T16:05:06.601Z,22.84
2019-02-24T16:07:38.485Z,22.91
2019-02-24T16:10:14.240Z,22.94
2019-02-24T16:12:47.017Z,24.67
2019-02-24T16:15:18.633Z,24.91
2019-02-24T16:17:53.422Z,25.06
2019-02-24T16:20:26.370Z,25.10
2019-02-24T16:22:58.475Z,24.82
2019-02-24T16:25:30.054Z,25.32
2019-02-24T16:28:02.102Z,25.24
2019-02-24T16:30:33.840Z,25.18
2019-02-24T16:33:10.675Z,24.97
2019-02-24T16:35:38.737Z,25.34
2019-02-24T16:38:11.586Z,25.55
2019-02-24T16:40:43.168Z,25.59
2019-02-24T16:43:14.819Z,26.31
2019-02-24T16:45:46.465Z,27.10
2019-02-24T16:48:18.067Z,27.34
2019-02-24T16:50:50.136Z,27.18
2019-02-24T16:53:21.786Z,28.42
2019-02-24T16:55:53.374Z,28.18
2019-02-24T16:58:25.055Z,27.77
2019-02-24T17:00:56.620Z,27.84
2019-02-24T17:03:28.700Z,27.84
2019-02-24T17:06:00.261Z,27.90
2019-02-24T17:08:31.912Z,28.24
2019-02-24T17:11:07.371Z,28.57
2019-02-24T17:13:36.742Z,28.76
2019-02-24T17:16:08.438Z,28.91
2019-02-24T17:18:40.026Z,29.29
2019-02-24T17:21:11.616Z,29.20
2019-02-24T17:23:49.741Z,29.46
2019-02-24T17:26:16.550Z,29.30
2019-02-24T17:28:48.135Z,29.33
2019-02-24T17:31:28.058Z,29.53
2019-02-24T17:33:53.033Z,30.20
2019-02-24T17:36:27.167Z,30.51
2019-02-24T17:38:58.785Z,30.49
2019-02-24T17:41:30.423Z,30.78
2019-02-24T17:44:02.944Z,30.95
2019-02-24T17:46:36.034Z,31.06
2019-02-24T17:49:08.737Z,31.08
2019-02-24T17:51:41.426Z,31.09
2019-02-24T17:54:12.995Z,30.94
2019-02-24T17:56:47.279Z,30.96
2019-02-24T17:59:18.867Z,31.18
2019-02-24T18:01:50.479Z,31.18
2019-02-24T18:04:23.572Z,31.43
2019-02-24T18:06:58.169Z,31.40
2019-02-24T18:09:29.789Z,31.59
2019-02-24T18:12:02.504Z,31.79
2019-02-24T18:14:34.087Z,32.13
2019-02-24T18:17:05.797Z,32.33
2019-02-24T18:19:37.395Z,32.74
2019-02-24T18:22:09.022Z,33.30
2019-02-24T18:24:44.341Z,33.24
2019-02-24T18:27:20.155Z,33.19
2019-02-24T18:29:51.683Z,33.56
2019-02-24T18:32:24.610Z,33.34
2019-02-24T18:34:56.401Z,33.47
2019-02-24T18:37:28.023Z,33.39
2019-02-24T18:40:04.312Z,33.16
2019-02-24T18:42:35.899Z,33.21
2019-02-24T18:45:10.755Z,33.46
2019-02-24T18:47:42.382Z,33.49
2019-02-24T18:50:13.993Z,34.37
2019-02-24T18:52:45.716Z,33.25
2019-02-24T18:55:18.636Z,32.63
2019-02-24T18:57:52.014Z,32.92
2019-02-24T19:00:23.630Z,33.58
2019-02-24T19:02:56.900Z,34.43
2019-02-24T19:05:30.783Z,35.29
2019-02-24T19:08:05.954Z,35.92
2019-02-24T19:10:37.568Z,36.03
2019-02-24T19:13:14.879Z,36.97
2019-02-24T19:15:46.435Z,37.05
2019-02-24T19:18:19.231Z,37.63
2019-02-24T19:20:51.824Z,37.32
2019-02-24T19:23:25.188Z,37.47
2019-02-24T19:25:56.869Z,36.14
2019-02-24T19:28:28.515Z,35.86
2019-02-24T19:31:00.216Z,36.78
2019-02-24T19:33:31.837Z,37.89
2019-02-24T19:36:05.209Z,37.93
2019-02-24T19:38:36.865Z,37.76
2019-02-24T19:41:08.817Z,37.10
2019-02-24T19:43:40.452Z,37.44
2019-02-24T19:46:12.053Z,37.92
2019-02-24T19:48:44.010Z,37.97
2019-02-24T19:51:18.348Z,37.79
2019-02-24T19:53:51.569Z,37.69
2019-02-24T19:56:23.183Z,38.88
2019-02-24T19:58:54.760Z,40.22
2019-02-24T20:01:26.318Z,41.22
2019-02-24T20:03:58.225Z,40.82
2019-02-24T20:06:29.890Z,39.24
2019-02-24T20:09:01.523Z,37.90
2019-02-24T20:11:36.037Z,38.25
2019-02-24T20:14:07.638Z,39.31
2019-02-24T20:16:44.409Z,38.66
2019-02-24T20:19:16.042Z,40.32
2019-02-24T20:21:51.642Z,40.49
2019-02-24T20:24:25.914Z,39.14
2019-02-24T20:27:00.286Z,39.25
2019-02-24T20:29:35.993Z,40.23
2019-02-24T20:32:07.548Z,39.71
2019-02-24T20:34:39.163Z,39.66
2019-02-24T20:37:10.797Z,41.16
2019-02-24T20:39:44.756Z,41.02
2019-02-24T20:42:16.376Z,41.27
2019-02-24T20:44:48.006Z,40.80
2019-02-24T20:47:19.582Z,41.36
2019-02-24T20:49:51.185Z,39.92
2019-02-24T20:52:25.264Z,41.54
2019-02-24T20:54:56.926Z,42.60
2019-02-24T20:57:34.827Z,43.35
2019-02-24T21:00:22.473Z,43.88
2019-02-24T21:02:55.079Z,44.07
2019-02-24T21:05:26.662Z,44.55
2019-02-24T21:08:08.029Z,44.68
2019-02-24T21:10:42.197Z,44.82
2019-02-24T21:13:16.781Z,45.39
2019-02-24T21:15:48.565Z,45.53
2019-02-24T21:18:22.537Z,45.92
2019-02-24T21:21:00.181Z,46.00
2019-02-24T21:23:35.933Z,45.81
2019-02-24T21:26:10.861Z,46.74
2019-02-24T21:28:42.461Z,46.57
2019-02-24T21:31:17.687Z,46.75
2019-02-24T21:33:54.783Z,46.87
2019-02-24T21:36:27.761Z,47.29
2019-02-24T21:39:02.380Z,47.11
2019-02-24T21:41:35.642Z,47.54
2019-02-24T21:44:08.871Z,47.24
2019-02-24T21:46:40.489Z,47.23
2019-02-24T21:49:13.051Z,47.51
2019-02-24T21:51:44.662Z,47.56
2019-02-24T21:54:19.240Z,47.97
2019-02-24T21:56:50.868Z,47.56
2019-02-24T21:59:25.410Z,48.01
2019-02-24T22:01:56.992Z,47.55
2019-02-24T22:04:30.851Z,47.91
2019-02-24T22:07:03.967Z,47.54
2019-02-24T22:09:35.542Z,47.59
2019-02-24T22:12:07.441Z,47.61
2019-02-24T22:14:40.278Z,47.88
2019-02-24T22:17:11.752Z,47.62
2019-02-24T22:19:49.461Z,47.61
2019-02-24T22:22:21.165Z,47.53
2019-02-24T22:24:52.733Z,47.79
2019-02-24T22:27:24.324Z,47.89
2019-02-24T22:29:55.890Z,47.97
2019-02-24T22:32:27.479Z,47.71
2019-02-24T22:34:59.087Z,48.07
2019-02-24T22:37:31.943Z,48.71
2019-02-24T22:40:08.409Z,48.37
2019-02-24T22:42:39.896Z,47.51
2019-02-24T22:45:16.818Z,46.45
2019-02-24T22:47:48.726Z,46.92
2019-02-24T22:50:20.299Z,46.76
2019-02-24T22:52:56.937Z,45.91
2019-02-24T22:55:31.647Z,45.52
2019-02-24T22:58:04.842Z,45.62
2019-02-24T23:01:09.980Z,44.83
2019-02-24T23:03:45.734Z,45.88
2019-02-24T23:06:19.495Z,45.58
2019-02-24T23:08:51.351Z,45.13
2019-02-24T23:11:23.051Z,46.07
2019-02-24T23:13:58.760Z,43.12
2019-02-24T23:16:30.327Z,43.71
2019-02-24T23:19:01.933Z,44.94
2019-02-24T23:21:35.245Z,44.69
2019-02-24T23:24:09.158Z,45.37
2019-02-24T23:26:40.855Z,45.07
2019-02-24T23:29:12.436Z,44.91
2019-02-24T23:31:45.832Z,45.32
2019-02-24T23:34:18.645Z,46.09
2019-02-24T23:36:51.796Z,46.48
2019-02-24T23:39:25.439Z,46.37
2019-02-24T23:41:56.985Z,46.12
2019-02-24T23:44:28.557Z,47.01
2019-02-24T23:47:01.412Z,46.91
2019-02-24T23:49:38.394Z,47.18
2019-02-24T23:52:09.981Z,47.06
2019-02-24T23:54:41.621Z,47.46
2019-02-24T23:57:14.771Z,47.25
2019-02-24T23:59:48.210Z,47.20
